Aeroporto :
LOGIN :

Iscrizione | Disclaimer

   EN    FR    IT 

 










Sommario :    VFR   VFR Marginale   IFR   IFR Intensivo   IFR Molto Intensivo
Visibilità : 
Base nubi : 
>= 8 km
>= 3000ft
5 / 8 km
1000 / 3000 ft
1500m / 5 km
500 / 1000 ft
800 / 1500m
200 / 500 ft
< 800m
< 200 ft
Simboli :   Temporali  Nebbia  Neve Forte  Precipitazioni Forti  Vento > 20 kt
SIGMETs :   Varie  Temporali  Ghiacco  Turbolenza  Onda orograficha  Ceneri Vulcaniche







- Altitudine del aeroporto : 157 ft
- Codice IATA : LIL
- Carte del aeroporto


LFQQ - Lille Lesquin

ULTIMO METAR :
  • 161400Z AUTO 13006KT 090V150 CAVOK 24/10 Q1017 NOSIG

METARs OBSOLETI :
  • 161330Z AUTO 13005KT 090V160 CAVOK 24/11 Q1017 NOSIG
  • 161300Z AUTO 14005KT 100V180 CAVOK 24/09 Q1017 NOSIG
  • 161230Z AUTO 10004KT 040V130 CAVOK 24/10 Q1017 NOSIG
  • 161200Z AUTO 17003KT 130V210 CAVOK 24/09 Q1017 NOSIG
  • 161130Z AUTO VRB03KT CAVOK 24/10 Q1018 NOSIG

TAF TAF LFQQ
Valido dal 16 a 12 ore il 17 a 18 ore UTC


161100Z 1612/1718 18008KT CAVOK
BECMG 1617/1620 VRB02KT
BECMG 1623/1702 3000 BR
PROB30
TEMPO 1702/1706 0200 FG VV///
BECMG 1706/1709 9999 NSW
ATIS : +33 3 20 16 19 54
Nessun NOTAM noto per questo aeroporto.



MetMap, La meteo Aeronautica in un colpo d'occhio ! - Copyright ORBIFLY Dicembre 2007 - Disclaimer

ORBIFLY MET'MAP TEAM :

Programmazione e sviluppo : Alexandra Zaïnal
Concezione e sviluppo : Baudouin d'Aumeries
Co-Programmazione e sviluppo : Marc-Olivier Méhu
Supporto tecnico e logistico : Manuel Goepfert
Aiuto per la traduzione : Arnaldo La Scala

Contatto : metmap@orbifly.com




FONTI E CREDITI :

   NOAA